sensor_id;sensor_type;location;lat;lon;timestamp;temperature;humidity
14471;DHT22;7321;50.802;4.336;2022-12-11T00:01:19;4.20;99.90
14471;DHT22;7321;50.802;4.336;2022-12-11T00:03:46;4.20;99.90
14471;DHT22;7321;50.802;4.336;2022-12-11T00:06:14;4.20;99.90
14471;DHT22;7321;50.802;4.336;2022-12-11T00:08:41;4.10;99.90
14471;DHT22;7321;50.802;4.336;2022-12-11T00:11:14;4.30;99.90
14471;DHT22;7321;50.802;4.336;2022-12-11T00:13:41;4.20;99.90
14471;DHT22;7321;50.802;4.336;2022-12-11T00:16:08;4.20;99.90
14471;DHT22;7321;50.802;4.336;2022-12-11T00:18:33;4.20;99.90
14471;DHT22;7321;50.802;4.336;2022-12-11T00:21:01;4.20;99.90
14471;DHT22;7321;50.802;4.336;2022-12-11T00:23:28;4.40;99.90
14471;DHT22;7321;50.802;4.336;2022-12-11T00:25:53;4.20;99.90
14471;DHT22;7321;50.802;4.336;2022-12-11T00:28:19;4.10;99.90
14471;DHT22;7321;50.802;4.336;2022-12-11T00:30:45;4.10;99.90
14471;DHT22;7321;50.802;4.336;2022-12-11T00:33:12;4.10;99.90
14471;DHT22;7321;50.802;4.336;2022-12-11T00:35:44;4.10;99.90
14471;DHT22;7321;50.802;4.336;2022-12-11T00:38:19;4.20;99.90
14471;DHT22;7321;50.802;4.336;2022-12-11T00:40:45;4.20;99.90
14471;DHT22;7321;50.802;4.336;2022-12-11T00:43:11;4.20;99.90
14471;DHT22;7321;50.802;4.336;2022-12-11T00:45:42;4.20;99.90
14471;DHT22;7321;50.802;4.336;2022-12-11T00:48:09;4.20;99.90
14471;DHT22;7321;50.802;4.336;2022-12-11T00:50:39;4.30;99.90
14471;DHT22;7321;50.802;4.336;2022-12-11T00:53:05;4.20;99.90
14471;DHT22;7321;50.802;4.336;2022-12-11T00:55:41;4.20;99.90
14471;DHT22;7321;50.802;4.336;2022-12-11T00:58:12;4.20;99.90
14471;DHT22;7321;50.802;4.336;2022-12-11T01:01:03;4.30;99.90
14471;DHT22;7321;50.802;4.336;2022-12-11T01:03:45;4.40;99.90
14471;DHT22;7321;50.802;4.336;2022-12-11T01:06:40;4.40;99.90
14471;DHT22;7321;50.802;4.336;2022-12-11T01:09:17;4.50;99.90
14471;DHT22;7321;50.802;4.336;2022-12-11T01:12:10;4.50;99.90
14471;DHT22;7321;50.802;4.336;2022-12-11T01:14:36;4.50;99.90
14471;DHT22;7321;50.802;4.336;2022-12-11T01:17:05;4.40;99.90
14471;DHT22;7321;50.802;4.336;2022-12-11T01:19:34;4.40;99.90
14471;DHT22;7321;50.802;4.336;2022-12-11T01:22:13;4.40;99.90
14471;DHT22;7321;50.802;4.336;2022-12-11T01:24:54;4.10;99.90
14471;DHT22;7321;50.802;4.336;2022-12-11T01:30:46;4.40;99.90
14471;DHT22;7321;50.802;4.336;2022-12-11T01:33:18;4.30;99.90
14471;DHT22;7321;50.802;4.336;2022-12-11T01:35:56;4.40;99.90
14471;DHT22;7321;50.802;4.336;2022-12-11T01:38:31;4.60;99.90
14471;DHT22;7321;50.802;4.336;2022-12-11T01:41:21;4.50;99.90
14471;DHT22;7321;50.802;4.336;2022-12-11T01:47:00;4.50;99.90
14471;DHT22;7321;50.802;4.336;2022-12-11T01:49:39;4.40;99.90
14471;DHT22;7321;50.802;4.336;2022-12-11T01:52:21;4.20;99.90
14471;DHT22;7321;50.802;4.336;2022-12-11T01:54:59;4.20;99.90
14471;DHT22;7321;50.802;4.336;2022-12-11T02:00:14;4.30;99.90
14471;DHT22;7321;50.802;4.336;2022-12-11T02:02:53;4.40;99.90
14471;DHT22;7321;50.802;4.336;2022-12-11T02:05:25;4.50;99.90
14471;DHT22;7321;50.802;4.336;2022-12-11T02:07:56;4.50;99.90
14471;DHT22;7321;50.802;4.336;2022-12-11T02:10:37;4.20;99.90
14471;DHT22;7321;50.802;4.336;2022-12-11T02:13:18;4.10;99.90
14471;DHT22;7321;50.802;4.336;2022-12-11T02:15:57;4.20;99.90
14471;DHT22;7321;50.802;4.336;2022-12-11T02:18:57;4.10;99.90
14471;DHT22;7321;50.802;4.336;2022-12-11T02:21:30;4.20;99.90
14471;DHT22;7321;50.802;4.336;2022-12-11T02:23:59;4.20;99.90
14471;DHT22;7321;50.802;4.336;2022-12-11T02:29:13;4.30;99.90
14471;DHT22;7321;50.802;4.336;2022-12-11T02:31:49;4.40;99.90
14471;DHT22;7321;50.802;4.336;2022-12-11T02:34:39;4.30;99.90
14471;DHT22;7321;50.802;4.336;2022-12-11T02:37:15;4.30;99.90
14471;DHT22;7321;50.802;4.336;2022-12-11T02:39:44;4.40;99.90
14471;DHT22;7321;50.802;4.336;2022-12-11T02:42:17;4.30;99.90
14471;DHT22;7321;50.802;4.336;2022-12-11T02:45:07;4.40;99.90
14471;DHT22;7321;50.802;4.336;2022-12-11T02:47:35;4.40;99.90
14471;DHT22;7321;50.802;4.336;2022-12-11T02:50:09;4.30;99.90
14471;DHT22;7321;50.802;4.336;2022-12-11T02:52:41;4.20;99.90
14471;DHT22;7321;50.802;4.336;2022-12-11T02:55:14;4.30;99.90
14471;DHT22;7321;50.802;4.336;2022-12-11T02:57:44;4.40;99.90
14471;DHT22;7321;50.802;4.336;2022-12-11T03:00:13;4.40;99.90
14471;DHT22;7321;50.802;4.336;2022-12-11T03:02:39;4.30;99.90
14471;DHT22;7321;50.802;4.336;2022-12-11T03:05:06;4.40;99.90
14471;DHT22;7321;50.802;4.336;2022-12-11T03:07:35;4.20;99.90
14471;DHT22;7321;50.802;4.336;2022-12-11T03:10:02;4.20;99.90
14471;DHT22;7321;50.802;4.336;2022-12-11T03:12:30;4.20;99.90
14471;DHT22;7321;50.802;4.336;2022-12-11T03:14:59;4.20;99.90
14471;DHT22;7321;50.802;4.336;2022-12-11T03:18:01;4.30;99.90
14471;DHT22;7321;50.802;4.336;2022-12-11T03:20:42;4.20;99.90
14471;DHT22;7321;50.802;4.336;2022-12-11T03:23:25;4.20;99.90
14471;DHT22;7321;50.802;4.336;2022-12-11T03:26:00;4.20;99.90
14471;DHT22;7321;50.802;4.336;2022-12-11T03:28:33;4.20;99.90
14471;DHT22;7321;50.802;4.336;2022-12-11T03:31:07;4.30;99.90
14471;DHT22;7321;50.802;4.336;2022-12-11T03:33:38;4.20;99.90
14471;DHT22;7321;50.802;4.336;2022-12-11T03:36:31;4.00;99.90
14471;DHT22;7321;50.802;4.336;2022-12-11T03:39:05;4.20;99.90
14471;DHT22;7321;50.802;4.336;2022-12-11T03:41:33;4.10;99.90
14471;DHT22;7321;50.802;4.336;2022-12-11T03:44:00;4.10;99.90
14471;DHT22;7321;50.802;4.336;2022-12-11T03:46:31;4.10;99.90
14471;DHT22;7321;50.802;4.336;2022-12-11T03:49:02;4.10;99.90
14471;DHT22;7321;50.802;4.336;2022-12-11T03:51:30;3.90;99.90
14471;DHT22;7321;50.802;4.336;2022-12-11T03:53:57;4.00;99.90
14471;DHT22;7321;50.802;4.336;2022-12-11T03:56:26;3.90;99.90
14471;DHT22;7321;50.802;4.336;2022-12-11T03:58:53;3.90;99.90
14471;DHT22;7321;50.802;4.336;2022-12-11T04:01:19;3.90;99.90
14471;DHT22;7321;50.802;4.336;2022-12-11T04:03:45;3.90;99.90
14471;DHT22;7321;50.802;4.336;2022-12-11T04:06:10;3.90;99.90
14471;DHT22;7321;50.802;4.336;2022-12-11T04:08:42;3.90;99.90
14471;DHT22;7321;50.802;4.336;2022-12-11T04:11:10;3.80;99.90
14471;DHT22;7321;50.802;4.336;2022-12-11T04:13:55;3.80;99.90
14471;DHT22;7321;50.802;4.336;2022-12-11T04:16:39;3.80;99.90
14471;DHT22;7321;50.802;4.336;2022-12-11T04:19:05;4.00;99.90
14471;DHT22;7321;50.802;4.336;2022-12-11T04:21:49;4.00;99.90
14471;DHT22;7321;50.802;4.336;2022-12-11T04:24:33;4.00;99.90
14471;DHT22;7321;50.802;4.336;2022-12-11T04:26:59;4.00;99.90
14471;DHT22;7321;50.802;4.336;2022-12-11T04:29:25;4.00;99.90
14471;DHT22;7321;50.802;4.336;2022-12-11T04:31:53;4.10;99.90
14471;DHT22;7321;50.802;4.336;2022-12-11T04:34:25;4.20;99.90
14471;DHT22;7321;50.802;4.336;2022-12-11T04:36:56;4.20;99.90
14471;DHT22;7321;50.802;4.336;2022-12-11T04:39:22;4.20;99.90
14471;DHT22;7321;50.802;4.336;2022-12-11T04:41:49;4.20;99.90
14471;DHT22;7321;50.802;4.336;2022-12-11T04:44:20;4.30;99.90
14471;DHT22;7321;50.802;4.336;2022-12-11T04:46:48;4.20;99.90
14471;DHT22;7321;50.802;4.336;2022-12-11T04:49:20;4.30;99.90
14471;DHT22;7321;50.802;4.336;2022-12-11T04:51:48;4.20;99.90
14471;DHT22;7321;50.802;4.336;2022-12-11T04:54:29;4.30;99.90
14471;DHT22;7321;50.802;4.336;2022-12-11T04:57:00;4.40;99.90
14471;DHT22;7321;50.802;4.336;2022-12-11T04:59:35;4.40;99.90
14471;DHT22;7321;50.802;4.336;2022-12-11T05:02:07;4.40;99.90
14471;DHT22;7321;50.802;4.336;2022-12-11T05:04:34;4.30;99.90
14471;DHT22;7321;50.802;4.336;2022-12-11T05:07:05;4.30;99.90
14471;DHT22;7321;50.802;4.336;2022-12-11T05:09:42;4.20;99.90
14471;DHT22;7321;50.802;4.336;2022-12-11T05:12:10;4.20;99.90
14471;DHT22;7321;50.802;4.336;2022-12-11T05:14:35;4.40;99.90
14471;DHT22;7321;50.802;4.336;2022-12-11T05:17:01;4.50;99.90
14471;DHT22;7321;50.802;4.336;2022-12-11T05:19:27;4.40;99.90
14471;DHT22;7321;50.802;4.336;2022-12-11T05:21:59;4.50;99.90
14471;DHT22;7321;50.802;4.336;2022-12-11T05:24:25;4.60;99.90
14471;DHT22;7321;50.802;4.336;2022-12-11T05:26:53;4.60;99.90
14471;DHT22;7321;50.802;4.336;2022-12-11T05:29:28;4.60;99.90
14471;DHT22;7321;50.802;4.336;2022-12-11T05:31:56;4.60;99.90
14471;DHT22;7321;50.802;4.336;2022-12-11T05:34:40;4.60;99.90
14471;DHT22;7321;50.802;4.336;2022-12-11T05:37:09;4.20;99.90
14471;DHT22;7321;50.802;4.336;2022-12-11T05:39:38;4.20;99.90
14471;DHT22;7321;50.802;4.336;2022-12-11T05:42:06;4.20;99.90
14471;DHT22;7321;50.802;4.336;2022-12-11T05:44:35;4.20;99.90
14471;DHT22;7321;50.802;4.336;2022-12-11T05:47:01;4.20;99.90
14471;DHT22;7321;50.802;4.336;2022-12-11T05:49:29;4.20;99.90
14471;DHT22;7321;50.802;4.336;2022-12-11T05:51:58;4.10;99.90
14471;DHT22;7321;50.802;4.336;2022-12-11T05:54:24;4.10;99.90
14471;DHT22;7321;50.802;4.336;2022-12-11T05:56:50;4.10;99.90
14471;DHT22;7321;50.802;4.336;2022-12-11T05:59:16;4.20;99.90
14471;DHT22;7321;50.802;4.336;2022-12-11T06:01:45;4.40;99.90
14471;DHT22;7321;50.802;4.336;2022-12-11T06:04:11;4.30;99.90
14471;DHT22;7321;50.802;4.336;2022-12-11T06:06:38;4.20;99.90
14471;DHT22;7321;50.802;4.336;2022-12-11T06:09:12;4.20;99.90
14471;DHT22;7321;50.802;4.336;2022-12-11T06:11:38;4.20;99.90
14471;DHT22;7321;50.802;4.336;2022-12-11T06:14:04;4.40;99.90
14471;DHT22;7321;50.802;4.336;2022-12-11T06:16:31;4.20;99.90
14471;DHT22;7321;50.802;4.336;2022-12-11T06:18:57;4.30;99.90
14471;DHT22;7321;50.802;4.336;2022-12-11T06:21:25;4.30;99.90
14471;DHT22;7321;50.802;4.336;2022-12-11T06:23:53;4.10;99.90
14471;DHT22;7321;50.802;4.336;2022-12-11T06:26:19;4.00;99.90
14471;DHT22;7321;50.802;4.336;2022-12-11T06:28:46;4.10;99.90
14471;DHT22;7321;50.802;4.336;2022-12-11T06:31:12;4.10;99.90
14471;DHT22;7321;50.802;4.336;2022-12-11T06:33:39;4.00;99.90
14471;DHT22;7321;50.802;4.336;2022-12-11T06:36:08;4.00;99.90
14471;DHT22;7321;50.802;4.336;2022-12-11T06:38:34;4.00;99.90
14471;DHT22;7321;50.802;4.336;2022-12-11T06:41:01;4.10;99.90
14471;DHT22;7321;50.802;4.336;2022-12-11T06:43:32;4.00;99.90
14471;DHT22;7321;50.802;4.336;2022-12-11T06:45:59;3.80;99.90
14471;DHT22;7321;50.802;4.336;2022-12-11T06:48:24;3.70;99.90
14471;DHT22;7321;50.802;4.336;2022-12-11T06:50:50;3.60;99.90
14471;DHT22;7321;50.802;4.336;2022-12-11T06:53:16;3.50;99.90
14471;DHT22;7321;50.802;4.336;2022-12-11T06:55:42;3.70;99.90
14471;DHT22;7321;50.802;4.336;2022-12-11T06:58:13;3.70;99.90
14471;DHT22;7321;50.802;4.336;2022-12-11T07:00:42;3.80;99.90
14471;DHT22;7321;50.802;4.336;2022-12-11T07:03:14;3.70;99.90
14471;DHT22;7321;50.802;4.336;2022-12-11T07:05:49;3.70;99.90
14471;DHT22;7321;50.802;4.336;2022-12-11T07:08:17;3.80;99.90
14471;DHT22;7321;50.802;4.336;2022-12-11T07:10:43;3.90;99.90
14471;DHT22;7321;50.802;4.336;2022-12-11T07:13:12;3.90;99.90
14471;DHT22;7321;50.802;4.336;2022-12-11T07:15:44;3.90;99.90
14471;DHT22;7321;50.802;4.336;2022-12-11T07:18:13;3.90;99.90
14471;DHT22;7321;50.802;4.336;2022-12-11T07:20:41;3.90;99.90
14471;DHT22;7321;50.802;4.336;2022-12-11T07:23:10;3.90;99.90
14471;DHT22;7321;50.802;4.336;2022-12-11T07:25:36;4.00;99.90
14471;DHT22;7321;50.802;4.336;2022-12-11T07:28:02;4.00;99.90
14471;DHT22;7321;50.802;4.336;2022-12-11T07:30:28;4.00;99.90
14471;DHT22;7321;50.802;4.336;2022-12-11T07:33:06;4.00;99.90
14471;DHT22;7321;50.802;4.336;2022-12-11T07:35:44;4.00;99.90
14471;DHT22;7321;50.802;4.336;2022-12-11T07:38:16;4.00;99.90
14471;DHT22;7321;50.802;4.336;2022-12-11T07:40:47;3.90;99.90
14471;DHT22;7321;50.802;4.336;2022-12-11T07:43:21;4.00;99.90
14471;DHT22;7321;50.802;4.336;2022-12-11T07:46:04;4.00;99.90
14471;DHT22;7321;50.802;4.336;2022-12-11T07:48:31;3.90;99.90
14471;DHT22;7321;50.802;4.336;2022-12-11T07:51:14;3.90;99.90
14471;DHT22;7321;50.802;4.336;2022-12-11T07:53:41;3.90;99.90
14471;DHT22;7321;50.802;4.336;2022-12-11T07:56:10;3.80;99.90
14471;DHT22;7321;50.802;4.336;2022-12-11T07:58:38;3.70;99.90
14471;DHT22;7321;50.802;4.336;2022-12-11T08:01:22;3.70;99.90
14471;DHT22;7321;50.802;4.336;2022-12-11T08:03:48;3.70;99.90
14471;DHT22;7321;50.802;4.336;2022-12-11T08:06:15;3.90;99.90
14471;DHT22;7321;50.802;4.336;2022-12-11T08:08:41;3.90;99.90
14471;DHT22;7321;50.802;4.336;2022-12-11T08:11:11;3.90;99.90
14471;DHT22;7321;50.802;4.336;2022-12-11T08:13:38;3.90;99.90
14471;DHT22;7321;50.802;4.336;2022-12-11T08:16:05;3.90;99.90
14471;DHT22;7321;50.802;4.336;2022-12-11T08:18:33;3.90;99.90
14471;DHT22;7321;50.802;4.336;2022-12-11T08:21:04;3.70;99.90
14471;DHT22;7321;50.802;4.336;2022-12-11T08:23:30;3.80;99.90
14471;DHT22;7321;50.802;4.336;2022-12-11T08:25:56;3.90;99.90
14471;DHT22;7321;50.802;4.336;2022-12-11T08:28:21;4.00;99.90
14471;DHT22;7321;50.802;4.336;2022-12-11T08:30:47;3.90;99.90
14471;DHT22;7321;50.802;4.336;2022-12-11T08:33:13;3.90;99.90
14471;DHT22;7321;50.802;4.336;2022-12-11T08:35:39;4.00;99.90
14471;DHT22;7321;50.802;4.336;2022-12-11T08:38:05;3.90;99.90
14471;DHT22;7321;50.802;4.336;2022-12-11T08:40:31;3.80;99.90
14471;DHT22;7321;50.802;4.336;2022-12-11T08:42:57;3.70;99.90
14471;DHT22;7321;50.802;4.336;2022-12-11T08:45:22;3.70;99.90
14471;DHT22;7321;50.802;4.336;2022-12-11T08:47:48;3.60;99.90
14471;DHT22;7321;50.802;4.336;2022-12-11T08:50:14;3.60;99.90
14471;DHT22;7321;50.802;4.336;2022-12-11T08:52:40;3.80;99.90
14471;DHT22;7321;50.802;4.336;2022-12-11T08:55:06;3.70;99.90
14471;DHT22;7321;50.802;4.336;2022-12-11T08:57:32;3.80;99.90
14471;DHT22;7321;50.802;4.336;2022-12-11T08:59:58;3.90;99.90
14471;DHT22;7321;50.802;4.336;2022-12-11T09:02:23;3.90;99.90
14471;DHT22;7321;50.802;4.336;2022-12-11T09:04:49;4.00;99.90
14471;DHT22;7321;50.802;4.336;2022-12-11T09:07:15;4.10;99.90
14471;DHT22;7321;50.802;4.336;2022-12-11T09:09:41;4.20;99.90
14471;DHT22;7321;50.802;4.336;2022-12-11T09:12:07;4.20;99.90
14471;DHT22;7321;50.802;4.336;2022-12-11T09:14:33;4.30;99.90
14471;DHT22;7321;50.802;4.336;2022-12-11T09:17:00;4.20;99.90
14471;DHT22;7321;50.802;4.336;2022-12-11T09:19:25;4.10;99.90
14471;DHT22;7321;50.802;4.336;2022-12-11T09:21:51;4.10;99.90
14471;DHT22;7321;50.802;4.336;2022-12-11T09:24:20;4.30;99.90
14471;DHT22;7321;50.802;4.336;2022-12-11T09:26:46;4.30;99.90
14471;DHT22;7321;50.802;4.336;2022-12-11T09:29:22;4.30;99.90
14471;DHT22;7321;50.802;4.336;2022-12-11T09:31:57;4.30;99.90
14471;DHT22;7321;50.802;4.336;2022-12-11T09:34:25;4.20;99.90
14471;DHT22;7321;50.802;4.336;2022-12-11T09:36:51;4.20;99.90
14471;DHT22;7321;50.802;4.336;2022-12-11T09:39:17;4.30;99.90
14471;DHT22;7321;50.802;4.336;2022-12-11T09:44:41;4.40;99.90
14471;DHT22;7321;50.802;4.336;2022-12-11T09:50:05;4.20;99.90
14471;DHT22;7321;50.802;4.336;2022-12-11T09:52:42;4.10;99.90
14471;DHT22;7321;50.802;4.336;2022-12-11T09:55:18;4.10;99.90
14471;DHT22;7321;50.802;4.336;2022-12-11T09:58:14;4.20;99.90
14471;DHT22;7321;50.802;4.336;2022-12-11T10:04:09;4.40;99.90
14471;DHT22;7321;50.802;4.336;2022-12-11T10:07:03;4.40;99.90
14471;DHT22;7321;50.802;4.336;2022-12-11T10:09:58;4.40;99.90
14471;DHT22;7321;50.802;4.336;2022-12-11T10:12:57;4.40;99.90
14471;DHT22;7321;50.802;4.336;2022-12-11T10:19:46;4.50;99.90
14471;DHT22;7321;50.802;4.336;2022-12-11T10:26:33;4.10;99.90
14471;DHT22;7321;50.802;4.336;2022-12-11T10:29:00;4.10;99.90
14471;DHT22;7321;50.802;4.336;2022-12-11T10:31:53;4.20;99.90
14471;DHT22;7321;50.802;4.336;2022-12-11T10:35:05;4.30;99.90
14471;DHT22;7321;50.802;4.336;2022-12-11T10:37:33;4.40;99.90
14471;DHT22;7321;50.802;4.336;2022-12-11T10:40:31;4.50;99.90
14471;DHT22;7321;50.802;4.336;2022-12-11T10:43:01;4.50;99.90
14471;DHT22;7321;50.802;4.336;2022-12-11T10:45:27;4.50;99.90
14471;DHT22;7321;50.802;4.336;2022-12-11T10:48:02;4.70;99.90
14471;DHT22;7321;50.802;4.336;2022-12-11T10:51:04;4.50;99.90
14471;DHT22;7321;50.802;4.336;2022-12-11T10:56:57;4.40;99.90
14471;DHT22;7321;50.802;4.336;2022-12-11T10:59:49;4.50;99.90
14471;DHT22;7321;50.802;4.336;2022-12-11T11:02:44;4.50;99.90
14471;DHT22;7321;50.802;4.336;2022-12-11T11:05:25;4.60;99.90
14471;DHT22;7321;50.802;4.336;2022-12-11T11:11:49;4.80;99.90
14471;DHT22;7321;50.802;4.336;2022-12-11T11:18:25;4.80;99.90
14471;DHT22;7321;50.802;4.336;2022-12-11T11:26:15;4.80;99.90
14471;DHT22;7321;50.802;4.336;2022-12-11T11:28:49;4.90;99.90
14471;DHT22;7321;50.802;4.336;2022-12-11T11:39:19;4.70;99.90
14471;DHT22;7321;50.802;4.336;2022-12-11T11:41:56;4.60;99.90
14471;DHT22;7321;50.802;4.336;2022-12-11T11:47:30;4.60;99.90
14471;DHT22;7321;50.802;4.336;2022-12-11T11:52:33;4.50;99.90
14471;DHT22;7321;50.802;4.336;2022-12-11T11:58:15;4.60;99.90
14471;DHT22;7321;50.802;4.336;2022-12-11T12:00:42;4.60;99.90
14471;DHT22;7321;50.802;4.336;2022-12-11T12:03:22;4.80;99.90
14471;DHT22;7321;50.802;4.336;2022-12-11T12:11:17;5.10;99.90
14471;DHT22;7321;50.802;4.336;2022-12-11T12:14:16;5.30;99.90
14471;DHT22;7321;50.802;4.336;2022-12-11T12:25:27;5.20;99.90
14471;DHT22;7321;50.802;4.336;2022-12-11T12:47:46;4.90;99.90
14471;DHT22;7321;50.802;4.336;2022-12-11T12:50:16;4.80;99.90
14471;DHT22;7321;50.802;4.336;2022-12-11T12:52:45;4.50;99.90
14471;DHT22;7321;50.802;4.336;2022-12-11T12:55:20;4.60;99.90
14471;DHT22;7321;50.802;4.336;2022-12-11T12:57:58;4.50;99.90
14471;DHT22;7321;50.802;4.336;2022-12-11T13:00:45;4.70;99.90
14471;DHT22;7321;50.802;4.336;2022-12-11T13:03:19;4.70;99.90
14471;DHT22;7321;50.802;4.336;2022-12-11T13:06:02;4.70;99.90
14471;DHT22;7321;50.802;4.336;2022-12-11T13:08:46;4.80;99.90
14471;DHT22;7321;50.802;4.336;2022-12-11T13:11:15;4.80;99.90
14471;DHT22;7321;50.802;4.336;2022-12-11T13:13:59;4.70;99.90
14471;DHT22;7321;50.802;4.336;2022-12-11T13:16:37;4.70;99.90
14471;DHT22;7321;50.802;4.336;2022-12-11T13:22:20;4.90;99.90
14471;DHT22;7321;50.802;4.336;2022-12-11T13:24:48;4.80;99.90
14471;DHT22;7321;50.802;4.336;2022-12-11T13:27:25;4.90;99.90
14471;DHT22;7321;50.802;4.336;2022-12-11T13:32:48;4.70;99.90
14471;DHT22;7321;50.802;4.336;2022-12-11T13:35:23;4.60;99.90
14471;DHT22;7321;50.802;4.336;2022-12-11T13:37:51;4.60;99.90
14471;DHT22;7321;50.802;4.336;2022-12-11T13:40:23;4.50;99.90
14471;DHT22;7321;50.802;4.336;2022-12-11T13:43:21;4.60;99.90
14471;DHT22;7321;50.802;4.336;2022-12-11T13:46:02;4.80;99.90
14471;DHT22;7321;50.802;4.336;2022-12-11T13:48:36;4.60;99.90
14471;DHT22;7321;50.802;4.336;2022-12-11T13:51:23;4.40;99.90
14471;DHT22;7321;50.802;4.336;2022-12-11T13:54:02;4.40;99.90
14471;DHT22;7321;50.802;4.336;2022-12-11T13:56:34;4.40;99.90
14471;DHT22;7321;50.802;4.336;2022-12-11T13:59:00;4.30;99.90
14471;DHT22;7321;50.802;4.336;2022-12-11T14:01:31;4.30;99.90
14471;DHT22;7321;50.802;4.336;2022-12-11T14:04:06;4.30;99.90
14471;DHT22;7321;50.802;4.336;2022-12-11T14:06:41;4.30;99.90
14471;DHT22;7321;50.802;4.336;2022-12-11T14:09:23;4.50;99.90
14471;DHT22;7321;50.802;4.336;2022-12-11T14:15:02;4.50;99.90
14471;DHT22;7321;50.802;4.336;2022-12-11T14:17:46;4.60;99.90
14471;DHT22;7321;50.802;4.336;2022-12-11T14:20:30;4.70;99.90
14471;DHT22;7321;50.802;4.336;2022-12-11T14:23:16;4.90;99.90
14471;DHT22;7321;50.802;4.336;2022-12-11T14:29:34;4.80;99.90
14471;DHT22;7321;50.802;4.336;2022-12-11T14:32:07;4.80;99.90
14471;DHT22;7321;50.802;4.336;2022-12-11T14:34:50;4.70;99.90
14471;DHT22;7321;50.802;4.336;2022-12-11T14:37:37;4.80;99.90
14471;DHT22;7321;50.802;4.336;2022-12-11T14:43:35;4.80;99.90
14471;DHT22;7321;50.802;4.336;2022-12-11T14:46:43;4.90;99.90
14471;DHT22;7321;50.802;4.336;2022-12-11T14:52:21;5.00;99.90
14471;DHT22;7321;50.802;4.336;2022-12-11T14:55:05;4.80;99.90
14471;DHT22;7321;50.802;4.336;2022-12-11T14:57:33;4.90;99.90
14471;DHT22;7321;50.802;4.336;2022-12-11T15:00:00;4.90;99.90
14471;DHT22;7321;50.802;4.336;2022-12-11T15:02:34;5.00;99.90
14471;DHT22;7321;50.802;4.336;2022-12-11T15:05:13;5.00;99.90
14471;DHT22;7321;50.802;4.336;2022-12-11T15:13:46;5.00;99.90
14471;DHT22;7321;50.802;4.336;2022-12-11T15:17:03;5.00;99.90
14471;DHT22;7321;50.802;4.336;2022-12-11T15:20:28;5.00;99.90
14471;DHT22;7321;50.802;4.336;2022-12-11T15:22:59;5.00;99.90
14471;DHT22;7321;50.802;4.336;2022-12-11T15:25:30;5.10;99.90
14471;DHT22;7321;50.802;4.336;2022-12-11T15:27:58;5.00;99.90
14471;DHT22;7321;50.802;4.336;2022-12-11T15:30:32;5.10;99.90
14471;DHT22;7321;50.802;4.336;2022-12-11T15:33:52;5.10;99.90
14471;DHT22;7321;50.802;4.336;2022-12-11T15:37:59;5.20;99.90
14471;DHT22;7321;50.802;4.336;2022-12-11T15:44:34;5.10;99.90
14471;DHT22;7321;50.802;4.336;2022-12-11T15:47:28;5.00;99.90
14471;DHT22;7321;50.802;4.336;2022-12-11T15:53:10;4.90;99.90
14471;DHT22;7321;50.802;4.336;2022-12-11T15:55:47;4.80;99.90
14471;DHT22;7321;50.802;4.336;2022-12-11T15:58:18;4.80;99.90
14471;DHT22;7321;50.802;4.336;2022-12-11T16:00:48;4.90;99.90
14471;DHT22;7321;50.802;4.336;2022-12-11T16:03:18;4.80;99.90
14471;DHT22;7321;50.802;4.336;2022-12-11T16:05:49;4.90;99.90
14471;DHT22;7321;50.802;4.336;2022-12-11T16:08:18;4.80;99.90
14471;DHT22;7321;50.802;4.336;2022-12-11T16:10:44;4.80;99.90
14471;DHT22;7321;50.802;4.336;2022-12-11T16:13:13;4.90;99.90
14471;DHT22;7321;50.802;4.336;2022-12-11T16:15:45;4.80;99.90
14471;DHT22;7321;50.802;4.336;2022-12-11T16:18:18;4.70;99.90
14471;DHT22;7321;50.802;4.336;2022-12-11T16:20:45;4.60;99.90
14471;DHT22;7321;50.802;4.336;2022-12-11T16:23:21;4.70;99.90
14471;DHT22;7321;50.802;4.336;2022-12-11T16:25:47;4.70;99.90
14471;DHT22;7321;50.802;4.336;2022-12-11T16:28:16;4.80;99.90
14471;DHT22;7321;50.802;4.336;2022-12-11T16:30:46;4.80;99.90
14471;DHT22;7321;50.802;4.336;2022-12-11T16:33:17;4.70;99.90
14471;DHT22;7321;50.802;4.336;2022-12-11T16:35:52;4.80;99.90
14471;DHT22;7321;50.802;4.336;2022-12-11T16:38:18;4.70;99.90
14471;DHT22;7321;50.802;4.336;2022-12-11T16:40:44;4.60;99.90
14471;DHT22;7321;50.802;4.336;2022-12-11T16:43:15;4.70;99.90
14471;DHT22;7321;50.802;4.336;2022-12-11T16:49:02;4.60;99.90
14471;DHT22;7321;50.802;4.336;2022-12-11T16:51:32;4.60;99.90
14471;DHT22;7321;50.802;4.336;2022-12-11T16:54:00;4.70;99.90
14471;DHT22;7321;50.802;4.336;2022-12-11T16:56:50;4.70;99.90
14471;DHT22;7321;50.802;4.336;2022-12-11T16:59:32;4.70;99.90
14471;DHT22;7321;50.802;4.336;2022-12-11T17:02:01;4.50;99.90
14471;DHT22;7321;50.802;4.336;2022-12-11T17:04:43;4.60;99.90
14471;DHT22;7321;50.802;4.336;2022-12-11T17:07:33;4.40;99.90
14471;DHT22;7321;50.802;4.336;2022-12-11T17:10:02;4.50;99.90
14471;DHT22;7321;50.802;4.336;2022-12-11T17:12:33;4.40;99.90
14471;DHT22;7321;50.802;4.336;2022-12-11T17:15:02;4.40;99.90
14471;DHT22;7321;50.802;4.336;2022-12-11T17:17:29;4.40;99.90
14471;DHT22;7321;50.802;4.336;2022-12-11T17:19:54;4.30;99.90
14471;DHT22;7321;50.802;4.336;2022-12-11T17:22:21;4.30;99.90
14471;DHT22;7321;50.802;4.336;2022-12-11T17:24:49;4.30;99.90
14471;DHT22;7321;50.802;4.336;2022-12-11T17:27:15;4.10;99.90
14471;DHT22;7321;50.802;4.336;2022-12-11T17:29:47;4.00;99.90
14471;DHT22;7321;50.802;4.336;2022-12-11T17:32:19;3.90;99.90
14471;DHT22;7321;50.802;4.336;2022-12-11T17:34:51;3.90;99.90
14471;DHT22;7321;50.802;4.336;2022-12-11T17:37:17;3.80;99.90
14471;DHT22;7321;50.802;4.336;2022-12-11T17:40:04;3.80;99.90
14471;DHT22;7321;50.802;4.336;2022-12-11T17:42:38;3.70;99.90
14471;DHT22;7321;50.802;4.336;2022-12-11T17:45:21;3.50;99.90
14471;DHT22;7321;50.802;4.336;2022-12-11T17:47:53;3.60;99.90
14471;DHT22;7321;50.802;4.336;2022-12-11T17:50:22;3.50;99.90
14471;DHT22;7321;50.802;4.336;2022-12-11T17:52:50;3.50;99.90
14471;DHT22;7321;50.802;4.336;2022-12-11T17:55:27;3.40;99.90
14471;DHT22;7321;50.802;4.336;2022-12-11T17:57:56;3.40;99.90
14471;DHT22;7321;50.802;4.336;2022-12-11T18:00:25;3.40;99.90
14471;DHT22;7321;50.802;4.336;2022-12-11T18:02:50;3.40;99.90
14471;DHT22;7321;50.802;4.336;2022-12-11T18:05:25;3.20;99.90
14471;DHT22;7321;50.802;4.336;2022-12-11T18:08:22;3.20;99.90
14471;DHT22;7321;50.802;4.336;2022-12-11T18:10:53;3.10;99.90
14471;DHT22;7321;50.802;4.336;2022-12-11T18:13:23;3.30;99.90
14471;DHT22;7321;50.802;4.336;2022-12-11T18:16:09;3.20;99.90
14471;DHT22;7321;50.802;4.336;2022-12-11T18:18:41;3.10;99.90
14471;DHT22;7321;50.802;4.336;2022-12-11T18:21:12;3.00;99.90
14471;DHT22;7321;50.802;4.336;2022-12-11T18:23:43;2.90;99.90
14471;DHT22;7321;50.802;4.336;2022-12-11T18:26:14;2.90;99.90
14471;DHT22;7321;50.802;4.336;2022-12-11T18:28:44;3.00;99.90
14471;DHT22;7321;50.802;4.336;2022-12-11T18:31:16;3.00;99.90
14471;DHT22;7321;50.802;4.336;2022-12-11T18:33:43;2.80;99.90
14471;DHT22;7321;50.802;4.336;2022-12-11T18:36:11;2.70;99.90
14471;DHT22;7321;50.802;4.336;2022-12-11T18:38:41;2.70;99.90
14471;DHT22;7321;50.802;4.336;2022-12-11T18:41:25;2.70;99.90
14471;DHT22;7321;50.802;4.336;2022-12-11T18:44:01;2.70;99.90
14471;DHT22;7321;50.802;4.336;2022-12-11T18:46:33;2.60;99.90
14471;DHT22;7321;50.802;4.336;2022-12-11T18:49:07;2.70;99.90
14471;DHT22;7321;50.802;4.336;2022-12-11T18:52:10;2.60;99.90
14471;DHT22;7321;50.802;4.336;2022-12-11T18:54:42;2.60;99.90